createdAt,value
2022-12-05T00:00:15.598Z,14.20
2022-12-05T00:01:19.447Z,13.90
2022-12-05T00:02:11.113Z,12.60
2022-12-05T00:03:05.734Z,14.20
2022-12-05T00:03:59.299Z,14.70
2022-12-05T00:04:50.833Z,14.40
2022-12-05T00:06:34.886Z,12.60
2022-12-05T00:07:26.340Z,14.20
2022-12-05T00:09:11.177Z,13.90
2022-12-05T00:10:03.113Z,14.80
2022-12-05T00:10:54.624Z,10.20
2022-12-05T00:11:47.182Z,14.90
2022-12-05T00:12:38.765Z,16.00
2022-12-05T00:14:21.801Z,15.40
2022-12-05T00:15:13.027Z,13.80
2022-12-05T00:16:06.942Z,13.30
2022-12-05T00:16:58.438Z,12.30
2022-12-05T00:17:50.510Z,13.90
2022-12-05T00:18:42.122Z,14.80
2022-12-05T00:20:24.728Z,15.30
2022-12-05T00:21:17.798Z,16.30
2022-12-05T00:22:09.180Z,14.70
2022-12-05T00:23:00.381Z,15.30
2022-12-05T00:24:25.358Z,15.00
2022-12-05T00:25:16.807Z,14.70
2022-12-05T00:26:08.827Z,13.30
2022-12-05T00:27:51.469Z,13.20
2022-12-05T00:28:43.206Z,14.10
2022-12-05T00:30:25.504Z,13.30
2022-12-05T00:31:18.432Z,14.00
2022-12-05T00:32:09.662Z,15.00
2022-12-05T00:33:01.189Z,16.60
2022-12-05T00:33:53.379Z,14.10
2022-12-05T00:34:44.874Z,17.60
2022-12-05T00:35:36.325Z,16.30
2022-12-05T00:36:29.870Z,14.40
2022-12-05T00:37:21.518Z,14.70
2022-12-05T00:38:12.970Z,11.80
2022-12-05T00:39:06.477Z,14.70
2022-12-05T00:39:58.237Z,14.70
2022-12-05T00:40:50.248Z,16.50
2022-12-05T00:41:42.225Z,16.80
2022-12-05T00:42:33.501Z,14.80
2022-12-05T00:43:24.799Z,16.80
2022-12-05T00:44:16.512Z,17.40
2022-12-05T00:45:07.958Z,15.40
2022-12-05T00:46:03.080Z,14.70
2022-12-05T00:46:54.172Z,15.80
2022-12-05T00:47:45.898Z,14.20
2022-12-05T00:48:37.718Z,15.60
2022-12-05T00:49:28.931Z,14.80
2022-12-05T00:50:20.552Z,13.90
2022-12-05T00:51:13.022Z,17.40
2022-12-05T00:52:04.331Z,15.00
2022-12-05T00:52:55.825Z,15.00
2022-12-05T00:53:47.581Z,13.40
2022-12-05T00:54:39.384Z,17.20
2022-12-05T00:55:30.888Z,14.60
2022-12-05T00:56:23.323Z,16.60
2022-12-05T00:57:14.854Z,17.40
2022-12-05T00:58:06.450Z,15.60
2022-12-05T00:58:58.795Z,15.80
2022-12-05T00:59:50.298Z,15.20
2022-12-05T01:00:41.857Z,15.50
2022-12-05T01:01:34.867Z,14.70
2022-12-05T01:02:26.280Z,15.90
2022-12-05T01:03:17.889Z,15.20
2022-12-05T01:04:13.893Z,16.00
2022-12-05T01:05:05.568Z,16.10
2022-12-05T01:05:58.882Z,14.40
2022-12-05T01:06:51.069Z,13.90
2022-12-05T01:07:42.412Z,17.30
2022-12-05T01:08:34.338Z,14.30
2022-12-05T01:09:25.746Z,12.90
2022-12-05T01:10:17.141Z,13.60
2022-12-05T01:11:09.191Z,14.60
2022-12-05T01:12:00.573Z,15.10
2022-12-05T01:13:44.080Z,14.90
2022-12-05T01:14:35.603Z,15.20
2022-12-05T01:15:27.373Z,13.80
2022-12-05T01:16:37.973Z,16.00
2022-12-05T01:17:29.334Z,17.50
2022-12-05T01:18:21.654Z,15.10
2022-12-05T01:19:17.647Z,17.90
2022-12-05T01:20:09.298Z,13.50
2022-12-05T01:21:04.881Z,13.30
2022-12-05T01:21:56.906Z,15.10
2022-12-05T01:22:48.310Z,16.10
2022-12-05T01:23:39.614Z,15.40
2022-12-05T01:24:31.254Z,15.40
2022-12-05T01:25:22.686Z,13.50
2022-12-05T01:26:15.776Z,16.40
2022-12-05T01:27:07.086Z,15.50
2022-12-05T01:27:58.601Z,15.10
2022-12-05T01:28:51.106Z,13.10
2022-12-05T01:29:42.419Z,14.00
2022-12-05T01:30:37.436Z,14.40
2022-12-05T01:31:30.706Z,14.20
2022-12-05T01:32:22.334Z,16.50
2022-12-05T01:33:13.812Z,16.60
2022-12-05T01:34:56.653Z,14.20
2022-12-05T01:35:48.042Z,16.40
2022-12-05T01:36:40.024Z,15.50
2022-12-05T01:39:13.900Z,15.30
2022-12-05T01:40:05.735Z,15.30
2022-12-05T01:41:04.386Z,15.40
2022-12-05T01:41:55.867Z,15.60
2022-12-05T01:42:47.529Z,16.70
2022-12-05T01:43:57.262Z,17.60
2022-12-05T01:44:48.765Z,16.10
2022-12-05T01:46:33.265Z,14.90
2022-12-05T01:47:25.385Z,19.00
2022-12-05T01:48:19.393Z,19.20
2022-12-05T01:49:15.366Z,14.50
2022-12-05T01:50:07.441Z,15.10
2022-12-05T01:51:53.884Z,19.00
2022-12-05T01:52:45.827Z,16.30
2022-12-05T01:53:37.749Z,18.80
2022-12-05T01:54:29.275Z,17.40
2022-12-05T01:55:20.660Z,16.30
2022-12-05T01:56:12.825Z,19.20
2022-12-05T01:57:06.510Z,17.40
2022-12-05T01:57:57.940Z,18.90
2022-12-05T01:58:50.980Z,16.10
2022-12-05T01:59:45.203Z,16.10
2022-12-05T02:00:36.608Z,18.00
2022-12-05T02:01:28.939Z,16.20
2022-12-05T02:02:20.675Z,16.30
2022-12-05T02:03:16.838Z,14.70
2022-12-05T02:04:08.579Z,16.40
2022-12-05T02:05:08.086Z,15.10
2022-12-05T02:06:00.105Z,16.00
2022-12-05T02:06:51.480Z,17.30
2022-12-05T02:07:43.788Z,16.40
2022-12-05T02:08:35.833Z,17.00
2022-12-05T02:10:18.517Z,14.30
2022-12-05T02:11:10.098Z,17.00
2022-12-05T02:12:02.461Z,16.70
2022-12-05T02:12:54.427Z,19.20
2022-12-05T02:13:51.675Z,17.90
2022-12-05T02:14:43.243Z,18.90
2022-12-05T02:15:43.610Z,16.10
2022-12-05T02:16:35.145Z,14.50
2022-12-05T02:17:32.283Z,17.50
2022-12-05T02:18:32.506Z,15.20
2022-12-05T02:19:32.754Z,18.20
2022-12-05T02:20:30.210Z,17.60
2022-12-05T02:21:35.416Z,15.90
2022-12-05T02:24:28.671Z,15.00
2022-12-05T02:25:32.049Z,14.50
2022-12-05T02:26:29.000Z,16.30
2022-12-05T02:27:29.785Z,18.00
2022-12-05T02:28:31.663Z,16.20
2022-12-05T02:29:46.483Z,14.80
2022-12-05T02:30:46.949Z,17.20
2022-12-05T02:31:47.660Z,16.70
2022-12-05T02:32:49.953Z,17.30
2022-12-05T02:33:48.963Z,16.00
2022-12-05T02:34:47.133Z,14.90
2022-12-05T02:35:38.719Z,16.60
2022-12-05T02:36:40.145Z,18.20
2022-12-05T02:37:36.167Z,13.90
2022-12-05T02:38:31.525Z,15.60
2022-12-05T02:39:31.071Z,17.00
2022-12-05T02:40:36.534Z,16.50
2022-12-05T02:41:32.770Z,17.00
2022-12-05T02:42:43.861Z,17.40
2022-12-05T02:44:32.201Z,15.30
2022-12-05T02:45:24.992Z,16.50
2022-12-05T02:46:17.777Z,14.60
2022-12-05T02:47:09.851Z,16.30
2022-12-05T02:48:01.829Z,18.20
2022-12-05T02:48:56.172Z,17.90
2022-12-05T02:49:48.107Z,17.20
2022-12-05T02:50:41.226Z,16.50
2022-12-05T02:51:35.279Z,19.80
2022-12-05T02:52:27.632Z,17.30
2022-12-05T02:53:21.374Z,17.00
2022-12-05T02:54:15.964Z,18.50
2022-12-05T02:55:08.312Z,18.60
2022-12-05T02:56:01.004Z,18.20
2022-12-05T02:56:53.106Z,15.80
2022-12-05T02:57:46.707Z,17.80
2022-12-05T02:58:40.621Z,16.90
2022-12-05T02:59:32.173Z,16.30
2022-12-05T03:01:15.590Z,16.30
2022-12-05T03:02:21.571Z,16.60
2022-12-05T03:03:15.198Z,16.80
2022-12-05T03:04:07.664Z,16.80
2022-12-05T03:05:04.549Z,16.60
2022-12-05T03:06:15.740Z,18.30
2022-12-05T03:07:09.163Z,14.90
2022-12-05T03:08:03.886Z,16.90
2022-12-05T03:09:01.024Z,16.50
2022-12-05T03:09:56.706Z,19.40
2022-12-05T03:10:49.808Z,19.00
2022-12-05T03:11:44.791Z,17.10
2022-12-05T03:12:42.623Z,17.40
2022-12-05T03:13:37.003Z,16.60
2022-12-05T03:14:33.860Z,17.80
2022-12-05T03:15:38.270Z,18.10
2022-12-05T03:16:33.126Z,17.80
2022-12-05T03:17:30.368Z,16.30
2022-12-05T03:18:29.372Z,18.70
2022-12-05T03:19:25.139Z,20.60
2022-12-05T03:20:31.613Z,18.20
2022-12-05T03:21:31.140Z,16.70
2022-12-05T03:22:33.154Z,16.00
2022-12-05T03:23:26.504Z,16.60
2022-12-05T03:24:17.428Z,17.70
2022-12-05T03:25:09.627Z,17.60
2022-12-05T03:26:12.028Z,16.80
2022-12-05T03:27:03.583Z,17.20
2022-12-05T03:28:13.794Z,19.40
2022-12-05T03:29:05.487Z,19.00
2022-12-05T03:30:02.271Z,19.20
2022-12-05T03:30:56.724Z,16.50
2022-12-05T03:31:55.250Z,17.80
2022-12-05T03:32:53.171Z,16.50
2022-12-05T03:33:45.685Z,16.10
2022-12-05T03:34:49.439Z,17.50
2022-12-05T03:35:59.047Z,17.60
2022-12-05T03:36:52.765Z,18.70
2022-12-05T03:37:56.203Z,15.00
2022-12-05T03:39:13.713Z,19.90
2022-12-05T03:40:14.915Z,18.70
2022-12-05T03:41:14.738Z,16.70
2022-12-05T03:42:26.526Z,17.30
2022-12-05T03:43:25.402Z,17.50
2022-12-05T03:44:16.531Z,19.50
2022-12-05T03:45:12.321Z,18.40
2022-12-05T03:46:13.798Z,17.30
2022-12-05T03:47:10.306Z,18.10
2022-12-05T03:48:07.793Z,19.50
2022-12-05T03:49:01.556Z,18.50
2022-12-05T03:49:55.950Z,17.20
2022-12-05T03:50:48.352Z,18.80
2022-12-05T03:51:45.958Z,18.40
2022-12-05T03:53:03.710Z,15.90
2022-12-05T03:53:58.063Z,17.70
2022-12-05T03:54:51.341Z,15.70
2022-12-05T03:55:44.016Z,19.10
2022-12-05T03:56:42.498Z,17.20
2022-12-05T03:57:46.305Z,16.20
2022-12-05T03:58:52.030Z,16.40
2022-12-05T03:59:48.091Z,15.60
2022-12-05T04:00:40.892Z,17.20
2022-12-05T04:01:33.915Z,18.70
2022-12-05T04:02:28.331Z,18.40
2022-12-05T04:03:39.981Z,16.30
2022-12-05T04:04:35.176Z,16.30
2022-12-05T04:05:38.179Z,19.30
2022-12-05T04:06:34.968Z,15.70
2022-12-05T04:07:29.430Z,19.10
2022-12-05T04:08:36.909Z,19.50
2022-12-05T04:09:30.024Z,17.10
2022-12-05T04:10:24.246Z,20.00
2022-12-05T04:11:19.996Z,17.50
2022-12-05T04:12:14.515Z,18.30
2022-12-05T04:13:17.993Z,17.30
2022-12-05T04:14:15.179Z,20.00
2022-12-05T04:15:09.416Z,15.60
2022-12-05T04:16:22.561Z,18.40
2022-12-05T04:17:31.895Z,17.20
2022-12-05T04:18:24.129Z,18.10
2022-12-05T04:19:28.258Z,16.50
2022-12-05T04:20:41.483Z,18.90
2022-12-05T04:21:41.426Z,21.10
2022-12-05T04:22:33.600Z,19.10
2022-12-05T04:23:25.746Z,18.80
2022-12-05T04:24:38.114Z,16.80
2022-12-05T04:25:35.759Z,20.20
2022-12-05T04:26:30.511Z,18.90
2022-12-05T04:27:31.841Z,20.80
2022-12-05T04:28:52.718Z,20.10
2022-12-05T04:29:49.983Z,16.10
2022-12-05T04:30:43.735Z,18.50
2022-12-05T04:31:39.717Z,21.70
2022-12-05T04:32:36.007Z,19.00
2022-12-05T04:33:31.989Z,18.80
2022-12-05T04:34:23.932Z,19.90
2022-12-05T04:35:19.411Z,16.30
2022-12-05T04:36:16.179Z,18.10
2022-12-05T04:37:12.651Z,19.70
2022-12-05T04:38:08.829Z,18.80
2022-12-05T04:39:03.110Z,16.40
2022-12-05T04:39:57.260Z,19.60
2022-12-05T04:40:59.307Z,19.20
2022-12-05T04:41:52.964Z,18.90
2022-12-05T04:42:46.540Z,20.20
2022-12-05T04:43:39.924Z,17.10
2022-12-05T04:44:37.114Z,18.10
2022-12-05T04:45:30.174Z,18.80
2022-12-05T04:46:22.163Z,18.00
2022-12-05T04:47:14.917Z,21.00
2022-12-05T04:48:09.879Z,17.30
2022-12-05T04:49:02.854Z,14.30
2022-12-05T04:49:55.766Z,17.90
2022-12-05T04:50:48.091Z,19.40
2022-12-05T04:51:39.990Z,17.70
2022-12-05T04:52:32.527Z,18.10
2022-12-05T04:53:26.203Z,19.90
2022-12-05T04:54:21.065Z,19.00
2022-12-05T04:55:14.950Z,19.70
2022-12-05T04:56:06.554Z,19.20
2022-12-05T04:57:09.352Z,16.90
2022-12-05T04:58:07.293Z,16.50
2022-12-05T04:58:58.344Z,16.60
2022-12-05T04:59:50.219Z,22.20
2022-12-05T05:00:59.277Z,19.20
2022-12-05T05:01:53.234Z,17.20
2022-12-05T05:02:55.446Z,17.40
2022-12-05T05:04:12.537Z,18.90
2022-12-05T05:05:12.454Z,17.10
2022-12-05T05:06:06.108Z,18.40
2022-12-05T05:08:49.406Z,20.60
2022-12-05T05:09:40.863Z,19.00
2022-12-05T05:10:37.882Z,21.40
2022-12-05T05:11:30.464Z,19.80
2022-12-05T05:12:21.629Z,19.80
2022-12-05T05:13:13.344Z,19.50
2022-12-05T05:14:05.057Z,21.50
2022-12-05T05:14:56.552Z,22.70
2022-12-05T05:15:47.912Z,18.90
2022-12-05T05:16:40.326Z,23.40
2022-12-05T05:17:31.860Z,23.60
2022-12-05T05:18:23.661Z,19.70
2022-12-05T05:19:14.747Z,19.30
2022-12-05T05:20:25.083Z,21.90
2022-12-05T05:21:18.918Z,21.20
2022-12-05T05:22:10.520Z,20.60
2022-12-05T05:23:01.810Z,19.70
2022-12-05T05:23:53.595Z,17.00
2022-12-05T05:24:45.152Z,20.50
2022-12-05T05:25:36.775Z,19.20
2022-12-05T05:26:28.907Z,20.40
2022-12-05T05:27:20.352Z,19.80
2022-12-05T05:28:11.895Z,19.50
2022-12-05T05:29:03.682Z,19.50
2022-12-05T05:29:55.506Z,19.90
2022-12-05T05:30:47.077Z,19.60
2022-12-05T05:31:39.399Z,21.00
2022-12-05T05:32:32.832Z,20.50
2022-12-05T05:33:24.429Z,19.10
2022-12-05T05:34:16.254Z,23.00
2022-12-05T05:36:02.376Z,18.40
2022-12-05T05:36:53.882Z,19.90
2022-12-05T05:37:45.981Z,18.40
2022-12-05T05:40:20.899Z,17.30
2022-12-05T05:41:14.063Z,22.00
2022-12-05T05:42:05.507Z,21.80
2022-12-05T05:42:57.064Z,20.10
2022-12-05T05:43:48.508Z,19.20
2022-12-05T05:44:39.976Z,21.40
2022-12-05T05:45:31.579Z,21.30
2022-12-05T05:46:24.986Z,23.00
2022-12-05T05:47:16.250Z,18.80
2022-12-05T05:48:59.770Z,21.30
2022-12-05T05:49:51.271Z,24.70
2022-12-05T05:51:35.669Z,19.20
2022-12-05T05:52:27.198Z,21.80
2022-12-05T05:53:18.750Z,24.10
2022-12-05T05:54:10.347Z,21.80
2022-12-05T05:55:02.193Z,20.10
2022-12-05T05:57:57.578Z,18.40
2022-12-05T05:58:49.307Z,23.20
2022-12-05T05:59:40.448Z,21.80
2022-12-05T06:00:31.578Z,20.70
2022-12-05T06:01:23.473Z,23.70
2022-12-05T06:02:14.585Z,20.00
2022-12-05T06:03:05.976Z,27.20
2022-12-05T06:03:57.807Z,23.20
2022-12-05T06:04:49.434Z,23.60
2022-12-05T06:05:40.552Z,20.70
2022-12-05T06:06:31.780Z,24.40
2022-12-05T06:07:23.019Z,20.50
2022-12-05T06:08:14.366Z,19.80
2022-12-05T06:09:06.653Z,22.70
2022-12-05T06:09:58.005Z,20.50
2022-12-05T06:10:49.151Z,18.50
2022-12-05T06:11:40.242Z,23.20
2022-12-05T06:12:31.753Z,23.10
2022-12-05T06:13:23.178Z,18.00
2022-12-05T06:14:14.037Z,22.00
2022-12-05T06:15:05.604Z,21.60
2022-12-05T06:16:48.060Z,21.90
2022-12-05T06:17:39.158Z,19.20
2022-12-05T06:18:30.300Z,21.10
2022-12-05T06:19:21.978Z,21.30
2022-12-05T06:20:13.381Z,22.90
2022-12-05T06:22:04.399Z,19.40
2022-12-05T06:22:55.517Z,19.00
2022-12-05T06:23:46.982Z,19.60
2022-12-05T06:24:38.609Z,25.00
2022-12-05T06:25:30.499Z,24.20
2022-12-05T06:26:22.388Z,22.00
2022-12-05T06:27:13.806Z,20.80
2022-12-05T06:28:05.142Z,22.20
2022-12-05T06:28:56.275Z,22.90
2022-12-05T06:29:47.582Z,21.20
2022-12-05T06:30:38.987Z,20.40
2022-12-05T06:31:31.897Z,23.40
2022-12-05T06:32:22.894Z,25.70
2022-12-05T06:33:14.494Z,24.10
2022-12-05T06:34:05.637Z,22.00
2022-12-05T06:34:56.927Z,23.30
2022-12-05T06:35:48.207Z,23.60
2022-12-05T06:36:39.496Z,22.80
2022-12-05T06:37:31.012Z,18.40
2022-12-05T06:38:22.586Z,22.70
2022-12-05T06:39:13.517Z,17.00
2022-12-05T06:40:05.319Z,23.10
2022-12-05T06:40:56.337Z,23.50
2022-12-05T06:41:47.831Z,25.50
2022-12-05T06:42:38.916Z,26.90
2022-12-05T06:43:30.220Z,25.10
2022-12-05T06:44:21.947Z,23.30
2022-12-05T06:46:05.108Z,23.30
2022-12-05T06:46:56.353Z,22.50
2022-12-05T06:47:47.437Z,24.50
2022-12-05T06:48:38.551Z,23.50
2022-12-05T06:49:36.408Z,25.30
2022-12-05T06:50:29.392Z,23.10
2022-12-05T06:51:20.830Z,25.40
2022-12-05T06:52:12.713Z,20.10
2022-12-05T06:53:04.181Z,22.30
2022-12-05T06:53:55.878Z,29.10
2022-12-05T06:54:47.124Z,24.50
2022-12-05T06:55:38.472Z,23.60
2022-12-05T06:56:30.048Z,21.30
2022-12-05T06:57:21.254Z,22.00
2022-12-05T06:58:12.317Z,23.30
2022-12-05T06:59:03.817Z,25.80
2022-12-05T07:00:15.128Z,21.00
2022-12-05T07:01:28.384Z,23.30
2022-12-05T07:02:19.555Z,21.50
2022-12-05T07:03:10.934Z,22.90
2022-12-05T07:04:02.769Z,20.90
2022-12-05T07:04:54.028Z,23.10
2022-12-05T07:05:45.192Z,20.00
2022-12-05T07:06:37.409Z,20.30
2022-12-05T07:07:29.354Z,22.10
2022-12-05T07:08:20.389Z,21.40
2022-12-05T07:09:11.730Z,23.70
2022-12-05T07:10:04.098Z,18.70
2022-12-05T07:10:55.973Z,21.90
2022-12-05T07:11:48.291Z,22.70
2022-12-05T07:12:39.647Z,22.50
2022-12-05T07:13:31.066Z,25.60
2022-12-05T07:14:46.313Z,22.60
2022-12-05T07:15:33.862Z,22.20
2022-12-05T07:16:25.265Z,23.20
2022-12-05T07:17:18.990Z,23.40
2022-12-05T07:18:10.534Z,22.90
2022-12-05T07:19:01.835Z,22.90
2022-12-05T07:19:53.348Z,23.00
2022-12-05T07:21:10.676Z,21.30
2022-12-05T07:21:55.775Z,24.30
2022-12-05T07:22:46.980Z,22.60
2022-12-05T07:23:38.139Z,19.60
2022-12-05T07:24:29.163Z,18.90
2022-12-05T07:25:22.473Z,20.20
2022-12-05T07:26:14.835Z,24.00
2022-12-05T07:27:06.314Z,21.70
2022-12-05T07:27:57.348Z,22.10
2022-12-05T07:28:48.763Z,23.80
2022-12-05T07:29:40.383Z,23.70
2022-12-05T07:30:31.571Z,23.10
2022-12-05T07:31:23.761Z,21.20
2022-12-05T07:33:05.928Z,20.50
2022-12-05T07:33:57.031Z,24.60
2022-12-05T07:34:53.541Z,24.30
2022-12-05T07:35:46.356Z,21.40
2022-12-05T07:36:37.545Z,21.10
2022-12-05T07:37:28.863Z,24.90
2022-12-05T07:38:20.196Z,21.50
2022-12-05T07:39:11.467Z,23.70
2022-12-05T07:40:02.715Z,22.20
2022-12-05T07:40:53.908Z,23.90
2022-12-05T07:41:44.982Z,22.00
2022-12-05T07:42:38.549Z,24.70
2022-12-05T07:43:29.535Z,23.90
2022-12-05T07:44:20.605Z,22.60
2022-12-05T07:45:12.331Z,23.00
2022-12-05T07:46:05.022Z,21.00
2022-12-05T07:46:56.093Z,26.60
2022-12-05T07:47:47.712Z,18.80
2022-12-05T07:48:39.578Z,25.50
2022-12-05T07:49:30.918Z,25.90
2022-12-05T07:50:22.012Z,19.80
2022-12-05T07:51:13.559Z,23.20
2022-12-05T07:52:56.123Z,22.30
2022-12-05T07:53:47.829Z,23.40
2022-12-05T07:54:39.066Z,21.70
2022-12-05T07:55:30.294Z,24.00
2022-12-05T07:56:21.654Z,25.90
2022-12-05T07:57:12.745Z,24.90
2022-12-05T07:58:03.923Z,18.60
2022-12-05T07:58:55.065Z,21.10
2022-12-05T07:59:46.348Z,20.10
2022-12-05T08:00:37.429Z,28.10
2022-12-05T08:01:29.284Z,21.90
2022-12-05T08:02:20.830Z,23.80
2022-12-05T08:03:12.334Z,22.30
2022-12-05T08:04:03.561Z,22.20
2022-12-05T08:04:54.522Z,16.40
2022-12-05T08:05:45.836Z,18.80
2022-12-05T08:06:37.072Z,22.10
2022-12-05T08:07:28.436Z,25.10
2022-12-05T08:08:19.295Z,21.50
2022-12-05T08:09:10.422Z,22.00
2022-12-05T08:10:01.572Z,20.50
2022-12-05T08:10:52.543Z,23.00
2022-12-05T08:11:48.159Z,21.60
2022-12-05T08:12:42.461Z,20.50
2022-12-05T08:13:34.111Z,23.60
2022-12-05T08:14:25.653Z,18.90
2022-12-05T08:15:17.137Z,19.50
2022-12-05T08:16:10.356Z,22.60
2022-12-05T08:17:01.851Z,19.60
2022-12-05T08:17:52.976Z,23.70
2022-12-05T08:18:44.255Z,22.00
2022-12-05T08:19:35.601Z,20.60
2022-12-05T08:20:26.795Z,20.70
2022-12-05T08:21:19.219Z,19.90
2022-12-05T08:22:10.439Z,20.20
2022-12-05T08:23:01.884Z,23.10
2022-12-05T08:23:55.808Z,20.40
2022-12-05T08:24:54.704Z,22.40
2022-12-05T08:25:47.502Z,17.60
2022-12-05T08:26:39.432Z,19.10
2022-12-05T08:27:30.726Z,19.90
2022-12-05T08:28:22.026Z,24.50
2022-12-05T08:29:14.533Z,23.70
2022-12-05T08:30:06.339Z,21.90
2022-12-05T08:31:02.960Z,21.60
2022-12-05T08:31:54.355Z,20.60
2022-12-05T08:32:45.780Z,17.70
2022-12-05T08:33:37.321Z,20.40
2022-12-05T08:34:29.198Z,21.20
2022-12-05T08:35:20.399Z,20.40
2022-12-05T08:36:12.765Z,18.20
2022-12-05T08:37:03.950Z,19.00
2022-12-05T08:37:55.395Z,21.70
2022-12-05T08:38:47.195Z,20.20
2022-12-05T08:40:31.274Z,18.10
2022-12-05T08:41:23.011Z,21.30
2022-12-05T08:43:05.720Z,23.90
2022-12-05T08:44:03.017Z,18.30
2022-12-05T08:44:54.667Z,17.10
2022-12-05T08:45:49.546Z,16.10
2022-12-05T08:46:40.982Z,20.70
2022-12-05T08:47:32.659Z,20.40
2022-12-05T08:48:29.007Z,20.00
2022-12-05T08:49:20.713Z,22.80
2022-12-05T08:50:12.304Z,22.70
2022-12-05T08:51:07.414Z,25.80
2022-12-05T08:51:58.724Z,24.40
2022-12-05T08:52:49.768Z,19.40
2022-12-05T08:53:44.732Z,19.90
2022-12-05T08:54:35.967Z,21.70
2022-12-05T08:55:26.989Z,23.80
2022-12-05T08:56:23.449Z,19.70
2022-12-05T08:57:18.245Z,22.10
2022-12-05T08:58:09.676Z,21.70
2022-12-05T08:59:05.744Z,22.60
2022-12-05T08:59:58.671Z,20.40
2022-12-05T09:00:50.010Z,25.20
2022-12-05T09:01:42.217Z,21.40
2022-12-05T09:02:34.180Z,22.60
2022-12-05T09:03:25.287Z,22.10
2022-12-05T09:04:16.467Z,22.10
2022-12-05T09:05:26.380Z,22.90
2022-12-05T09:06:22.706Z,23.40
2022-12-05T09:07:14.354Z,21.80
2022-12-05T09:08:05.965Z,21.30
2022-12-05T09:08:59.102Z,26.40
2022-12-05T09:09:50.914Z,23.60
2022-12-05T09:10:42.500Z,21.00
2022-12-05T09:11:35.923Z,23.90
2022-12-05T09:12:26.967Z,20.70
2022-12-05T09:13:18.264Z,24.70
2022-12-05T09:14:09.765Z,25.40
2022-12-05T09:15:01.406Z,17.90
2022-12-05T09:15:52.811Z,22.50
2022-12-05T09:16:44.743Z,25.10
2022-12-05T09:17:35.845Z,22.90
2022-12-05T09:18:27.083Z,24.80
2022-12-05T09:19:20.963Z,27.40
2022-12-05T09:20:13.812Z,22.20
2022-12-05T09:21:15.238Z,28.50
2022-12-05T09:22:07.014Z,27.30
2022-12-05T09:22:58.418Z,21.70
2022-12-05T09:23:50.048Z,28.10
2022-12-05T09:25:32.667Z,12.80
2022-12-05T09:26:25.190Z,17.20
2022-12-05T09:27:16.727Z,18.50
2022-12-05T09:28:08.158Z,22.80
2022-12-05T09:28:59.285Z,24.70
2022-12-05T09:29:51.462Z,23.10
2022-12-05T09:30:43.816Z,27.00
2022-12-05T09:31:36.575Z,20.90
2022-12-05T09:32:28.185Z,21.80
2022-12-05T09:33:20.024Z,24.80
2022-12-05T09:34:13.368Z,22.00
2022-12-05T09:35:05.037Z,23.10
2022-12-05T09:35:56.582Z,21.40
2022-12-05T09:36:55.801Z,22.80
2022-12-05T09:37:52.550Z,21.20
2022-12-05T09:38:44.626Z,20.70
2022-12-05T09:39:35.974Z,23.80
2022-12-05T09:40:27.542Z,20.10
2022-12-05T09:41:55.711Z,19.10
2022-12-05T09:43:05.334Z,22.70
2022-12-05T09:44:02.768Z,20.90
2022-12-05T09:45:14.520Z,21.20
2022-12-05T09:46:18.723Z,20.50
2022-12-05T09:47:09.827Z,18.30
2022-12-05T09:48:19.599Z,22.00
2022-12-05T09:49:11.751Z,17.20
2022-12-05T09:50:02.998Z,23.80
2022-12-05T09:50:57.390Z,21.30
2022-12-05T09:51:54.966Z,24.00
2022-12-05T09:52:46.570Z,22.40
2022-12-05T09:53:39.662Z,25.90
2022-12-05T09:54:31.347Z,22.70
2022-12-05T09:55:24.932Z,21.90
2022-12-05T09:56:23.070Z,25.10
2022-12-05T09:58:57.724Z,22.60
2022-12-05T09:59:49.287Z,20.20
2022-12-05T10:00:40.481Z,25.90
2022-12-05T10:01:42.000Z,20.70
2022-12-05T10:02:43.115Z,18.70
2022-12-05T10:03:41.211Z,23.50
2022-12-05T10:04:35.552Z,20.60
2022-12-05T10:05:29.845Z,19.20
2022-12-05T10:06:26.318Z,22.30
2022-12-05T10:07:17.259Z,18.60
2022-12-05T10:08:08.654Z,23.10
2022-12-05T10:09:06.257Z,19.90
2022-12-05T10:10:20.182Z,20.00
2022-12-05T10:11:16.827Z,19.80
2022-12-05T10:12:19.537Z,21.10
2022-12-05T10:13:19.884Z,19.10
2022-12-05T10:14:18.410Z,20.80
2022-12-05T10:15:22.731Z,14.90
2022-12-05T10:16:22.169Z,17.80
2022-12-05T10:17:26.609Z,16.90
2022-12-05T10:18:34.049Z,19.40
2022-12-05T10:19:28.810Z,19.20
2022-12-05T10:20:24.664Z,16.30
2022-12-05T10:21:21.782Z,17.40
2022-12-05T10:22:20.277Z,17.70
2022-12-05T10:23:55.505Z,20.60
2022-12-05T10:24:47.141Z,14.20
2022-12-05T10:25:39.732Z,15.50
2022-12-05T10:26:37.034Z,18.00
2022-12-05T10:27:39.596Z,15.50
2022-12-05T10:28:34.952Z,15.60
2022-12-05T10:29:31.801Z,17.50
2022-12-05T10:30:24.442Z,16.60
2022-12-05T10:31:19.256Z,16.60
2022-12-05T10:32:17.086Z,18.60
2022-12-05T10:33:14.152Z,16.70
2022-12-05T10:34:29.661Z,16.00
2022-12-05T10:35:22.786Z,16.10
2022-12-05T10:36:14.418Z,15.80
2022-12-05T10:37:22.328Z,15.90
2022-12-05T10:38:27.938Z,16.70
2022-12-05T10:39:19.378Z,10.70
2022-12-05T10:40:12.198Z,16.80
2022-12-05T10:41:05.640Z,16.10
2022-12-05T10:41:57.160Z,19.90
2022-12-05T10:42:49.496Z,17.60
2022-12-05T10:43:42.486Z,14.70
2022-12-05T10:44:34.053Z,17.40
2022-12-05T10:45:25.541Z,16.60
2022-12-05T10:46:17.601Z,19.30
2022-12-05T10:47:09.432Z,16.80
2022-12-05T10:48:00.839Z,17.60
2022-12-05T10:49:43.683Z,15.20
2022-12-05T10:50:37.010Z,18.70
2022-12-05T10:51:34.060Z,14.50
2022-12-05T10:52:30.190Z,18.00
2022-12-05T10:53:25.987Z,15.90
2022-12-05T10:54:20.634Z,21.50
2022-12-05T10:55:13.861Z,17.40
2022-12-05T10:56:32.540Z,17.10
2022-12-05T10:57:25.538Z,15.20
2022-12-05T10:58:17.776Z,16.50
2022-12-05T10:59:10.480Z,17.00
2022-12-05T11:00:13.408Z,17.40
2022-12-05T11:01:09.435Z,17.40
2022-12-05T11:02:02.951Z,15.30
2022-12-05T11:02:54.452Z,20.20
2022-12-05T11:03:45.762Z,15.80
2022-12-05T11:04:44.581Z,16.70
2022-12-05T11:05:39.424Z,15.80
2022-12-05T11:06:32.982Z,16.50
2022-12-05T11:07:27.231Z,15.00
2022-12-05T11:09:03.179Z,16.80
2022-12-05T11:09:47.854Z,16.70
2022-12-05T11:11:35.090Z,15.90
2022-12-05T11:12:30.172Z,15.40
2022-12-05T11:13:25.261Z,14.90
2022-12-05T11:14:24.606Z,15.40
2022-12-05T11:15:19.564Z,14.80
2022-12-05T11:16:22.702Z,15.40
2022-12-05T11:17:23.205Z,15.60
2022-12-05T11:18:33.829Z,15.50
2022-12-05T11:19:32.316Z,14.20
2022-12-05T11:20:23.600Z,13.50
2022-12-05T11:21:16.022Z,15.00
2022-12-05T11:22:16.344Z,14.40
2022-12-05T11:23:24.102Z,13.40
2022-12-05T11:24:23.233Z,14.10
2022-12-05T11:25:23.510Z,16.00
2022-12-05T11:26:17.671Z,13.30
2022-12-05T11:27:17.628Z,11.30
2022-12-05T11:28:17.922Z,11.80
2022-12-05T11:29:47.830Z,12.50
2022-12-05T11:30:38.697Z,9.30
2022-12-05T11:31:31.144Z,10.50
2022-12-05T11:32:24.094Z,11.20
2022-12-05T11:33:17.915Z,12.70
2022-12-05T11:34:13.427Z,12.10
2022-12-05T11:35:14.284Z,14.90
2022-12-05T11:36:10.159Z,12.10
2022-12-05T11:37:13.232Z,12.40
2022-12-05T11:38:05.297Z,11.30
2022-12-05T11:38:57.964Z,9.20
2022-12-05T11:39:49.230Z,10.70
2022-12-05T11:40:54.421Z,6.80
2022-12-05T11:41:52.750Z,9.60
2022-12-05T11:42:52.501Z,10.40
2022-12-05T11:44:02.683Z,10.80
2022-12-05T11:45:04.151Z,8.60
2022-12-05T11:46:10.102Z,7.80
2022-12-05T11:47:14.537Z,10.40
2022-12-05T11:48:08.641Z,9.90
2022-12-05T11:49:18.925Z,10.20
2022-12-05T11:50:19.274Z,10.60
2022-12-05T11:51:29.671Z,10.80
2022-12-05T11:52:40.986Z,9.80
2022-12-05T11:53:42.861Z,8.20
2022-12-05T11:56:07.683Z,10.20
2022-12-05T11:57:00.800Z,9.20
2022-12-05T11:58:01.006Z,9.90
2022-12-05T11:59:11.105Z,9.40
2022-12-05T12:00:21.026Z,11.40
2022-12-05T12:01:38.847Z,10.70
2022-12-05T12:02:48.775Z,11.60
2022-12-05T12:03:58.270Z,11.80
2022-12-05T12:05:01.590Z,10.50
2022-12-05T12:05:59.171Z,8.80
2022-12-05T12:07:02.719Z,9.40
2022-12-05T12:08:03.561Z,10.20
2022-12-05T12:09:12.186Z,11.20
2022-12-05T12:10:18.544Z,9.90
2022-12-05T12:11:12.919Z,9.00
2022-12-05T12:12:10.192Z,9.60
2022-12-05T12:13:08.393Z,9.40
2022-12-05T12:15:17.447Z,9.60
2022-12-05T12:16:13.925Z,13.70
2022-12-05T12:17:24.033Z,11.40
2022-12-05T12:18:24.545Z,9.10
2022-12-05T12:19:15.667Z,8.90
2022-12-05T12:20:19.441Z,10.20
2022-12-05T12:21:25.785Z,10.10
2022-12-05T12:22:32.398Z,10.40
2022-12-05T12:23:42.152Z,10.00
2022-12-05T12:24:53.216Z,8.90
2022-12-05T12:26:02.751Z,10.60
2022-12-05T12:26:55.946Z,8.50